OIFS

Details ICAO OIFS (CQD)
Name SHAHRE KORD
Region Iran
Timezone Asia/Tehran (UTC+3.5)
Plans Departing 2
Arriving 6
Stats Elevation 6,723 ft / 2,049 m (AMSL)
Location 32.296796° 50.841747°
Runways 1
Magnetic Variation 3.920° E
Sunrise 2017-12-14 03:31:07 UTC / 2017-12-14 07:01:07 Local
Sunset 2017-12-14 13:34:11 UTC / 2017-12-14 17:04:11 Local
Advertisement - Login to hide

Runways

ID Width Length Bearing (true) Bearing (mag) Surface Threshold Offset Overrun Length
14 148 ft / 45 m 10,836 ft / 3,303 m 146.85° 142.93° Asphalt 483 ft / 147 m 0 ft / 0 m
32 148 ft / 45 m 10,836 ft / 3,303 m 326.86° 322.94° Asphalt 478 ft / 146 m 0 ft / 0 m

Map

Weather


0- 5 10 15 20 25 30 35+ Temperature / ° C

Clouds and Precipitation
Forecast for 2017-12-14 00:00 UTC. Updated 2 hours ago

Ground ~20,000 ft ~40,000 ft Winds

METAR

OIFS 132357Z 30002KT CAVOK M08/M21 Q1022

TAF

Not found

Frequencies

Tower 121.70 MHz INFO
Tower 118.50 MHz INFO
Warning: Do not use this data for real-world aviation or navigation. No guarantee of current accuracy is given.